sensor_id;sensor_type;location;lat;lon;timestamp;pressure;altitude;pressure_sealevel;temperature;humidity
6345;BME280;3205;42.666;23.264;2022-12-18T00:00:13;95069.78;;;8.60;100.00
6345;BME280;3205;42.666;23.264;2022-12-18T00:02:39;95067.47;;;8.58;100.00
6345;BME280;3205;42.666;23.264;2022-12-18T00:05:06;95072.38;;;8.51;100.00
6345;BME280;3205;42.666;23.264;2022-12-18T00:07:32;95078.69;;;8.42;100.00
6345;BME280;3205;42.666;23.264;2022-12-18T00:09:59;95080.59;;;8.50;100.00
6345;BME280;3205;42.666;23.264;2022-12-18T00:12:25;95080.84;;;8.40;100.00
6345;BME280;3205;42.666;23.264;2022-12-18T00:14:51;95084.19;;;8.32;100.00
6345;BME280;3205;42.666;23.264;2022-12-18T00:17:17;95087.97;;;8.17;100.00
6345;BME280;3205;42.666;23.264;2022-12-18T00:19:43;95097.75;;;8.17;100.00
6345;BME280;3205;42.666;23.264;2022-12-18T00:22:10;95093.63;;;8.11;100.00
6345;BME280;3205;42.666;23.264;2022-12-18T00:24:36;95097.19;;;8.07;100.00
6345;BME280;3205;42.666;23.264;2022-12-18T00:27:03;95097.94;;;8.07;100.00
6345;BME280;3205;42.666;23.264;2022-12-18T00:29:29;95094.59;;;7.93;100.00
6345;BME280;3205;42.666;23.264;2022-12-18T00:31:55;95100.94;;;7.92;100.00
6345;BME280;3205;42.666;23.264;2022-12-18T00:34:21;95098.28;;;7.92;100.00
6345;BME280;3205;42.666;23.264;2022-12-18T00:36:48;95101.91;;;7.96;100.00
6345;BME280;3205;42.666;23.264;2022-12-18T00:39:14;95102.66;;;7.97;100.00
6345;BME280;3205;42.666;23.264;2022-12-18T00:41:41;95102.00;;;7.91;100.00
6345;BME280;3205;42.666;23.264;2022-12-18T00:44:26;95111.16;;;7.94;100.00
6345;BME280;3205;42.666;23.264;2022-12-18T00:46:52;95109.31;;;7.94;100.00
6345;BME280;3205;42.666;23.264;2022-12-18T00:49:19;95112.66;;;7.86;100.00
6345;BME280;3205;42.666;23.264;2022-12-18T00:51:45;95118.41;;;7.88;100.00
6345;BME280;3205;42.666;23.264;2022-12-18T00:54:11;95125.63;;;7.83;100.00
6345;BME280;3205;42.666;23.264;2022-12-18T00:56:38;95125.44;;;7.79;100.00
6345;BME280;3205;42.666;23.264;2022-12-18T00:59:05;95118.72;;;7.73;100.00
6345;BME280;3205;42.666;23.264;2022-12-18T01:01:31;95126.13;;;7.71;100.00
6345;BME280;3205;42.666;23.264;2022-12-18T01:03:59;95131.13;;;7.73;100.00
6345;BME280;3205;42.666;23.264;2022-12-18T01:06:26;95136.59;;;7.49;100.00
6345;BME280;3205;42.666;23.264;2022-12-18T01:08:52;95136.03;;;7.52;100.00
6345;BME280;3205;42.666;23.264;2022-12-18T01:11:19;95141.38;;;7.47;100.00
6345;BME280;3205;42.666;23.264;2022-12-18T01:13:46;95145.78;;;7.38;100.00
6345;BME280;3205;42.666;23.264;2022-12-18T01:16:13;95143.16;;;7.38;100.00
6345;BME280;3205;42.666;23.264;2022-12-18T01:18:40;95138.00;;;7.34;100.00
6345;BME280;3205;42.666;23.264;2022-12-18T01:21:07;95140.13;;;7.32;100.00
6345;BME280;3205;42.666;23.264;2022-12-18T01:23:34;95150.25;;;7.25;100.00
6345;BME280;3205;42.666;23.264;2022-12-18T01:26:04;95150.75;;;7.27;100.00
6345;BME280;3205;42.666;23.264;2022-12-18T01:28:31;95143.91;;;7.12;100.00
6345;BME280;3205;42.666;23.264;2022-12-18T01:30:57;95151.16;;;7.07;100.00
6345;BME280;3205;42.666;23.264;2022-12-18T01:33:34;95151.72;;;7.04;100.00
6345;BME280;3205;42.666;23.264;2022-12-18T01:36:01;95151.25;;;7.02;100.00
6345;BME280;3205;42.666;23.264;2022-12-18T01:38:28;95153.88;;;7.02;100.00
6345;BME280;3205;42.666;23.264;2022-12-18T01:40:57;95157.56;;;7.01;100.00
6345;BME280;3205;42.666;23.264;2022-12-18T01:43:41;95164.56;;;7.05;100.00
6345;BME280;3205;42.666;23.264;2022-12-18T01:46:08;95170.56;;;6.79;100.00
6345;BME280;3205;42.666;23.264;2022-12-18T01:48:35;95167.03;;;6.70;100.00
6345;BME280;3205;42.666;23.264;2022-12-18T01:51:02;95161.69;;;6.75;100.00
6345;BME280;3205;42.666;23.264;2022-12-18T01:53:28;95167.91;;;6.65;100.00
6345;BME280;3205;42.666;23.264;2022-12-18T01:55:55;95162.19;;;6.63;100.00
6345;BME280;3205;42.666;23.264;2022-12-18T01:58:27;95169.16;;;6.68;100.00
6345;BME280;3205;42.666;23.264;2022-12-18T02:00:56;95162.59;;;6.70;100.00
6345;BME280;3205;42.666;23.264;2022-12-18T02:03:22;95169.97;;;6.68;100.00
6345;BME280;3205;42.666;23.264;2022-12-18T02:05:53;95159.56;;;6.77;100.00
6345;BME280;3205;42.666;23.264;2022-12-18T02:08:28;95171.63;;;6.78;100.00
6345;BME280;3205;42.666;23.264;2022-12-18T02:11:03;95164.81;;;6.77;100.00
6345;BME280;3205;42.666;23.264;2022-12-18T02:13:38;95175.63;;;6.75;100.00
6345;BME280;3205;42.666;23.264;2022-12-18T02:16:13;95170.94;;;6.72;100.00
6345;BME280;3205;42.666;23.264;2022-12-18T02:18:45;95174.16;;;6.69;100.00
6345;BME280;3205;42.666;23.264;2022-12-18T02:21:22;95178.38;;;6.84;100.00
6345;BME280;3205;42.666;23.264;2022-12-18T02:23:56;95179.25;;;6.93;100.00
6345;BME280;3205;42.666;23.264;2022-12-18T02:26:30;95172.25;;;6.88;100.00
6345;BME280;3205;42.666;23.264;2022-12-18T02:29:01;95185.59;;;6.92;100.00
6345;BME280;3205;42.666;23.264;2022-12-18T02:31:33;95183.81;;;6.87;100.00
6345;BME280;3205;42.666;23.264;2022-12-18T02:34:03;95186.44;;;6.87;100.00
6345;BME280;3205;42.666;23.264;2022-12-18T02:36:32;95189.38;;;6.86;100.00
6345;BME280;3205;42.666;23.264;2022-12-18T02:38:59;95197.56;;;6.84;100.00
6345;BME280;3205;42.666;23.264;2022-12-18T02:41:28;95195.31;;;6.91;100.00
6345;BME280;3205;42.666;23.264;2022-12-18T02:44:00;95192.91;;;6.95;100.00
6345;BME280;3205;42.666;23.264;2022-12-18T02:46:31;95197.16;;;6.91;100.00
6345;BME280;3205;42.666;23.264;2022-12-18T02:49:06;95203.06;;;6.83;100.00
6345;BME280;3205;42.666;23.264;2022-12-18T02:51:38;95211.34;;;6.76;100.00
6345;BME280;3205;42.666;23.264;2022-12-18T02:54:10;95203.66;;;6.80;100.00
6345;BME280;3205;42.666;23.264;2022-12-18T02:56:45;95199.28;;;6.75;100.00
6345;BME280;3205;42.666;23.264;2022-12-18T02:59:14;95208.50;;;6.73;100.00
6345;BME280;3205;42.666;23.264;2022-12-18T03:01:48;95207.34;;;6.79;100.00
6345;BME280;3205;42.666;23.264;2022-12-18T03:04:19;95215.97;;;6.66;100.00
6345;BME280;3205;42.666;23.264;2022-12-18T03:06:49;95217.56;;;6.67;100.00
6345;BME280;3205;42.666;23.264;2022-12-18T03:09:20;95224.06;;;6.69;100.00
6345;BME280;3205;42.666;23.264;2022-12-18T03:11:52;95229.13;;;6.66;100.00
6345;BME280;3205;42.666;23.264;2022-12-18T03:14:38;95229.66;;;6.50;100.00
6345;BME280;3205;42.666;23.264;2022-12-18T03:17:08;95229.06;;;6.53;100.00
6345;BME280;3205;42.666;23.264;2022-12-18T03:19:38;95229.78;;;6.58;100.00
6345;BME280;3205;42.666;23.264;2022-12-18T03:22:07;95228.91;;;6.63;100.00
6345;BME280;3205;42.666;23.264;2022-12-18T03:24:33;95228.13;;;6.62;100.00
6345;BME280;3205;42.666;23.264;2022-12-18T03:27:08;95234.81;;;6.55;100.00
6345;BME280;3205;42.666;23.264;2022-12-18T03:29:38;95243.66;;;6.59;100.00
6345;BME280;3205;42.666;23.264;2022-12-18T03:32:10;95246.09;;;6.55;100.00
6345;BME280;3205;42.666;23.264;2022-12-18T03:34:40;95250.56;;;6.55;100.00
6345;BME280;3205;42.666;23.264;2022-12-18T03:37:08;95251.41;;;6.50;100.00
6345;BME280;3205;42.666;23.264;2022-12-18T03:39:35;95250.25;;;6.43;100.00
6345;BME280;3205;42.666;23.264;2022-12-18T03:42:06;95258.38;;;6.41;100.00
6345;BME280;3205;42.666;23.264;2022-12-18T03:44:39;95269.88;;;6.45;100.00
6345;BME280;3205;42.666;23.264;2022-12-18T03:47:11;95274.13;;;6.41;100.00
6345;BME280;3205;42.666;23.264;2022-12-18T03:49:45;95277.47;;;6.28;100.00
6345;BME280;3205;42.666;23.264;2022-12-18T03:52:18;95277.97;;;6.30;100.00
6345;BME280;3205;42.666;23.264;2022-12-18T03:54:46;95276.81;;;6.18;100.00
6345;BME280;3205;42.666;23.264;2022-12-18T03:57:16;95277.13;;;6.16;100.00
6345;BME280;3205;42.666;23.264;2022-12-18T03:59:45;95285.13;;;6.25;100.00
6345;BME280;3205;42.666;23.264;2022-12-18T04:02:14;95280.69;;;6.25;100.00
6345;BME280;3205;42.666;23.264;2022-12-18T04:04:42;95275.13;;;6.27;100.00
6345;BME280;3205;42.666;23.264;2022-12-18T04:07:10;95282.25;;;6.26;100.00
6345;BME280;3205;42.666;23.264;2022-12-18T04:09:38;95281.66;;;6.29;100.00
6345;BME280;3205;42.666;23.264;2022-12-18T04:12:06;95293.88;;;6.20;100.00
6345;BME280;3205;42.666;23.264;2022-12-18T04:14:32;95304.72;;;6.14;100.00
6345;BME280;3205;42.666;23.264;2022-12-18T04:17:01;95313.94;;;6.11;100.00
6345;BME280;3205;42.666;23.264;2022-12-18T04:19:27;95321.53;;;6.13;100.00
6345;BME280;3205;42.666;23.264;2022-12-18T04:21:53;95316.06;;;6.09;100.00
6345;BME280;3205;42.666;23.264;2022-12-18T04:24:19;95323.38;;;6.12;100.00
6345;BME280;3205;42.666;23.264;2022-12-18T04:26:46;95322.59;;;6.12;100.00
6345;BME280;3205;42.666;23.264;2022-12-18T04:29:12;95320.97;;;6.16;100.00
6345;BME280;3205;42.666;23.264;2022-12-18T04:31:39;95330.19;;;6.13;100.00
6345;BME280;3205;42.666;23.264;2022-12-18T04:34:05;95331.47;;;6.16;100.00
6345;BME280;3205;42.666;23.264;2022-12-18T04:36:32;95334.09;;;6.16;100.00
6345;BME280;3205;42.666;23.264;2022-12-18T04:38:58;95341.59;;;6.22;100.00
6345;BME280;3205;42.666;23.264;2022-12-18T04:41:25;95352.69;;;6.19;100.00
6345;BME280;3205;42.666;23.264;2022-12-18T04:43:51;95358.50;;;6.16;100.00
6345;BME280;3205;42.666;23.264;2022-12-18T04:46:18;95359.63;;;6.10;100.00
6345;BME280;3205;42.666;23.264;2022-12-18T04:48:46;95365.38;;;6.12;100.00
6345;BME280;3205;42.666;23.264;2022-12-18T04:51:12;95368.03;;;6.07;100.00
6345;BME280;3205;42.666;23.264;2022-12-18T04:53:39;95361.50;;;6.05;100.00
6345;BME280;3205;42.666;23.264;2022-12-18T04:56:06;95370.72;;;6.02;100.00
6345;BME280;3205;42.666;23.264;2022-12-18T04:58:33;95371.75;;;6.06;100.00
6345;BME280;3205;42.666;23.264;2022-12-18T05:00:59;95380.63;;;6.10;100.00
6345;BME280;3205;42.666;23.264;2022-12-18T05:03:25;95379.56;;;6.11;100.00
6345;BME280;3205;42.666;23.264;2022-12-18T05:05:53;95377.44;;;6.13;100.00
6345;BME280;3205;42.666;23.264;2022-12-18T05:08:19;95388.88;;;5.99;100.00
6345;BME280;3205;42.666;23.264;2022-12-18T05:10:45;95387.28;;;6.03;100.00
6345;BME280;3205;42.666;23.264;2022-12-18T05:13:11;95393.81;;;6.05;100.00
6345;BME280;3205;42.666;23.264;2022-12-18T05:15:37;95394.56;;;6.06;100.00
6345;BME280;3205;42.666;23.264;2022-12-18T05:18:04;95393.00;;;6.05;100.00
6345;BME280;3205;42.666;23.264;2022-12-18T05:20:31;95394.06;;;6.04;100.00
6345;BME280;3205;42.666;23.264;2022-12-18T05:22:58;95400.56;;;6.11;100.00
6345;BME280;3205;42.666;23.264;2022-12-18T05:25:24;95403.69;;;6.13;100.00
6345;BME280;3205;42.666;23.264;2022-12-18T05:27:50;95398.22;;;6.10;100.00
6345;BME280;3205;42.666;23.264;2022-12-18T05:30:17;95409.25;;;6.07;100.00
6345;BME280;3205;42.666;23.264;2022-12-18T05:32:43;95415.41;;;5.97;100.00
6345;BME280;3205;42.666;23.264;2022-12-18T05:35:10;95426.34;;;6.04;100.00
6345;BME280;3205;42.666;23.264;2022-12-18T05:37:37;95422.47;;;5.97;100.00
6345;BME280;3205;42.666;23.264;2022-12-18T05:40:05;95428.59;;;5.92;100.00
6345;BME280;3205;42.666;23.264;2022-12-18T05:42:31;95435.78;;;5.77;100.00
6345;BME280;3205;42.666;23.264;2022-12-18T05:44:57;95431.63;;;5.71;100.00
6345;BME280;3205;42.666;23.264;2022-12-18T05:47:23;95433.75;;;5.69;100.00
6345;BME280;3205;42.666;23.264;2022-12-18T05:49:50;95431.91;;;5.70;100.00
6345;BME280;3205;42.666;23.264;2022-12-18T05:52:16;95442.13;;;5.71;100.00
6345;BME280;3205;42.666;23.264;2022-12-18T05:54:42;95439.25;;;5.68;100.00
6345;BME280;3205;42.666;23.264;2022-12-18T05:57:09;95442.41;;;5.70;100.00
6345;BME280;3205;42.666;23.264;2022-12-18T05:59:35;95440.84;;;5.69;100.00
6345;BME280;3205;42.666;23.264;2022-12-18T06:02:01;95447.38;;;5.71;100.00
6345;BME280;3205;42.666;23.264;2022-12-18T06:04:28;95462.63;;;5.64;100.00
6345;BME280;3205;42.666;23.264;2022-12-18T06:06:55;95454.97;;;5.73;100.00
6345;BME280;3205;42.666;23.264;2022-12-18T06:09:21;95454.41;;;5.76;100.00
6345;BME280;3205;42.666;23.264;2022-12-18T06:11:48;95460.19;;;5.78;100.00
6345;BME280;3205;42.666;23.264;2022-12-18T06:14:15;95460.16;;;5.83;100.00
6345;BME280;3205;42.666;23.264;2022-12-18T06:16:42;95471.19;;;5.75;100.00
6345;BME280;3205;42.666;23.264;2022-12-18T06:19:14;95467.25;;;5.82;100.00
6345;BME280;3205;42.666;23.264;2022-12-18T06:21:41;95469.31;;;5.85;100.00
6345;BME280;3205;42.666;23.264;2022-12-18T06:24:07;95470.66;;;5.83;100.00
6345;BME280;3205;42.666;23.264;2022-12-18T06:26:33;95481.94;;;5.83;100.00
6345;BME280;3205;42.666;23.264;2022-12-18T06:29:00;95475.34;;;5.86;100.00
6345;BME280;3205;42.666;23.264;2022-12-18T06:31:27;95479.09;;;5.80;100.00
6345;BME280;3205;42.666;23.264;2022-12-18T06:33:53;95483.53;;;5.79;100.00
6345;BME280;3205;42.666;23.264;2022-12-18T06:36:19;95486.16;;;5.79;100.00
6345;BME280;3205;42.666;23.264;2022-12-18T06:38:46;95494.81;;;5.80;100.00
6345;BME280;3205;42.666;23.264;2022-12-18T06:41:14;95494.44;;;5.91;100.00
6345;BME280;3205;42.666;23.264;2022-12-18T06:43:42;95497.63;;;5.88;100.00
6345;BME280;3205;42.666;23.264;2022-12-18T06:46:09;95502.59;;;5.89;100.00
6345;BME280;3205;42.666;23.264;2022-12-18T06:48:36;95506.69;;;6.00;100.00
6345;BME280;3205;42.666;23.264;2022-12-18T06:51:03;95516.31;;;6.10;100.00
6345;BME280;3205;42.666;23.264;2022-12-18T06:53:29;95525.50;;;6.07;100.00
6345;BME280;3205;42.666;23.264;2022-12-18T06:56:00;95527.28;;;6.17;100.00
6345;BME280;3205;42.666;23.264;2022-12-18T06:58:27;95529.41;;;6.15;100.00
6345;BME280;3205;42.666;23.264;2022-12-18T07:00:53;95530.22;;;6.10;100.00
6345;BME280;3205;42.666;23.264;2022-12-18T07:03:19;95528.38;;;6.11;100.00
6345;BME280;3205;42.666;23.264;2022-12-18T07:05:46;95523.84;;;6.16;100.00
6345;BME280;3205;42.666;23.264;2022-12-18T07:08:12;95534.06;;;6.18;100.00
6345;BME280;3205;42.666;23.264;2022-12-18T07:10:41;95539.84;;;6.20;100.00
6345;BME280;3205;42.666;23.264;2022-12-18T07:13:09;95541.69;;;6.19;100.00
6345;BME280;3205;42.666;23.264;2022-12-18T07:15:35;95542.81;;;6.08;100.00
6345;BME280;3205;42.666;23.264;2022-12-18T07:18:01;95543.84;;;6.12;100.00
6345;BME280;3205;42.666;23.264;2022-12-18T07:20:28;95541.25;;;6.07;100.00
6345;BME280;3205;42.666;23.264;2022-12-18T07:22:54;95542.28;;;6.11;100.00
6345;BME280;3205;42.666;23.264;2022-12-18T07:25:21;95544.34;;;6.14;100.00
6345;BME280;3205;42.666;23.264;2022-12-18T07:27:47;95544.41;;;6.09;100.00
6345;BME280;3205;42.666;23.264;2022-12-18T07:30:13;95549.88;;;6.13;100.00
6345;BME280;3205;42.666;23.264;2022-12-18T07:32:39;95556.38;;;6.20;100.00
6345;BME280;3205;42.666;23.264;2022-12-18T07:35:06;95558.50;;;6.18;100.00
6345;BME280;3205;42.666;23.264;2022-12-18T07:37:32;95566.97;;;6.10;100.00
6345;BME280;3205;42.666;23.264;2022-12-18T07:39:59;95567.66;;;6.21;100.00
6345;BME280;3205;42.666;23.264;2022-12-18T07:42:25;95567.94;;;6.19;100.00
6345;BME280;3205;42.666;23.264;2022-12-18T07:44:57;95561.53;;;6.30;100.00
6345;BME280;3205;42.666;23.264;2022-12-18T07:47:23;95566.78;;;6.30;100.00
6345;BME280;3205;42.666;23.264;2022-12-18T07:49:50;95568.28;;;6.36;100.00
6345;BME280;3205;42.666;23.264;2022-12-18T07:52:16;95558.25;;;6.43;100.00
6345;BME280;3205;42.666;23.264;2022-12-18T07:54:42;95573.03;;;6.34;100.00
6345;BME280;3205;42.666;23.264;2022-12-18T07:57:09;95581.66;;;6.40;100.00
6345;BME280;3205;42.666;23.264;2022-12-18T07:59:35;95578.97;;;6.45;100.00
6345;BME280;3205;42.666;23.264;2022-12-18T08:02:01;95586.09;;;6.44;100.00
6345;BME280;3205;42.666;23.264;2022-12-18T08:04:28;95594.03;;;6.39;100.00
6345;BME280;3205;42.666;23.264;2022-12-18T08:06:54;95590.13;;;6.32;100.00
6345;BME280;3205;42.666;23.264;2022-12-18T08:09:20;95598.81;;;6.27;100.00
6345;BME280;3205;42.666;23.264;2022-12-18T08:11:46;95602.31;;;6.18;100.00
6345;BME280;3205;42.666;23.264;2022-12-18T08:14:13;95605.19;;;6.21;100.00
6345;BME280;3205;42.666;23.264;2022-12-18T08:16:40;95599.69;;;6.18;100.00
6345;BME280;3205;42.666;23.264;2022-12-18T08:19:06;95622.31;;;6.14;100.00
6345;BME280;3205;42.666;23.264;2022-12-18T08:21:32;95622.03;;;6.20;100.00
6345;BME280;3205;42.666;23.264;2022-12-18T08:24:00;95622.28;;;6.19;100.00
6345;BME280;3205;42.666;23.264;2022-12-18T08:26:29;95632.53;;;6.15;100.00
6345;BME280;3205;42.666;23.264;2022-12-18T08:28:57;95624.91;;;6.19;100.00
6345;BME280;3205;42.666;23.264;2022-12-18T08:31:26;95639.06;;;6.23;100.00
6345;BME280;3205;42.666;23.264;2022-12-18T08:33:53;95636.78;;;6.11;100.00
6345;BME280;3205;42.666;23.264;2022-12-18T08:36:20;95639.44;;;6.06;100.00
6345;BME280;3205;42.666;23.264;2022-12-18T08:38:46;95631.97;;;6.23;100.00
6345;BME280;3205;42.666;23.264;2022-12-18T08:41:14;95635.38;;;6.24;100.00
6345;BME280;3205;42.666;23.264;2022-12-18T08:43:41;95634.53;;;6.28;100.00
6345;BME280;3205;42.666;23.264;2022-12-18T08:46:27;95634.50;;;6.33;100.00
6345;BME280;3205;42.666;23.264;2022-12-18T08:48:57;95638.78;;;6.24;100.00
6345;BME280;3205;42.666;23.264;2022-12-18T08:51:25;95641.13;;;6.26;100.00
6345;BME280;3205;42.666;23.264;2022-12-18T08:53:51;95638.22;;;6.27;100.00
6345;BME280;3205;42.666;23.264;2022-12-18T08:56:17;95647.31;;;6.40;100.00
6345;BME280;3205;42.666;23.264;2022-12-18T08:58:44;95637.31;;;6.42;100.00
6345;BME280;3205;42.666;23.264;2022-12-18T09:01:11;95646.94;;;6.51;100.00
6345;BME280;3205;42.666;23.264;2022-12-18T09:03:38;95643.03;;;6.49;100.00
6345;BME280;3205;42.666;23.264;2022-12-18T09:06:05;95645.63;;;6.54;100.00
6345;BME280;3205;42.666;23.264;2022-12-18T09:08:35;95638.72;;;6.63;100.00
6345;BME280;3205;42.666;23.264;2022-12-18T09:11:02;95634.78;;;6.60;100.00
6345;BME280;3205;42.666;23.264;2022-12-18T09:13:28;95625.28;;;6.64;100.00
6345;BME280;3205;42.666;23.264;2022-12-18T09:15:55;95632.56;;;6.72;100.00
6345;BME280;3205;42.666;23.264;2022-12-18T09:18:22;95633.09;;;6.74;100.00
6345;BME280;3205;42.666;23.264;2022-12-18T09:20:50;95637.38;;;6.65;100.00
6345;BME280;3205;42.666;23.264;2022-12-18T09:23:17;95642.44;;;6.57;100.00
6345;BME280;3205;42.666;23.264;2022-12-18T09:25:44;95631.13;;;6.61;100.00
6345;BME280;3205;42.666;23.264;2022-12-18T09:28:14;95639.16;;;6.69;100.00
6345;BME280;3205;42.666;23.264;2022-12-18T09:30:43;95639.34;;;6.78;100.00
6345;BME280;3205;42.666;23.264;2022-12-18T09:33:09;95640.97;;;6.74;100.00
6345;BME280;3205;42.666;23.264;2022-12-18T09:35:44;95640.91;;;6.79;100.00
6345;BME280;3205;42.666;23.264;2022-12-18T09:38:13;95641.66;;;6.84;100.00
6345;BME280;3205;42.666;23.264;2022-12-18T09:40:42;95637.94;;;6.85;100.00
6345;BME280;3205;42.666;23.264;2022-12-18T09:43:14;95651.22;;;6.99;100.00
6345;BME280;3205;42.666;23.264;2022-12-18T09:45:46;95651.28;;;7.17;100.00
6345;BME280;3205;42.666;23.264;2022-12-18T09:48:17;95645.66;;;7.24;100.00
6345;BME280;3205;42.666;23.264;2022-12-18T09:50:45;95654.34;;;7.24;100.00
6345;BME280;3205;42.666;23.264;2022-12-18T09:53:19;95647.06;;;7.39;100.00
6345;BME280;3205;42.666;23.264;2022-12-18T09:55:46;95646.34;;;7.34;100.00
6345;BME280;3205;42.666;23.264;2022-12-18T09:58:18;95646.53;;;7.61;100.00
6345;BME280;3205;42.666;23.264;2022-12-18T10:00:46;95643.84;;;7.66;100.00
6345;BME280;3205;42.666;23.264;2022-12-18T10:03:14;95640.22;;;7.80;100.00
6345;BME280;3205;42.666;23.264;2022-12-18T10:05:47;95641.56;;;7.78;100.00
6345;BME280;3205;42.666;23.264;2022-12-18T10:08:22;95648.31;;;7.84;100.00
6345;BME280;3205;42.666;23.264;2022-12-18T10:10:52;95649.41;;;8.01;100.00
6345;BME280;3205;42.666;23.264;2022-12-18T10:13:28;95646.25;;;7.99;100.00
6345;BME280;3205;42.666;23.264;2022-12-18T10:16:09;95652.97;;;8.10;100.00
6345;BME280;3205;42.666;23.264;2022-12-18T10:18:56;95652.88;;;8.33;100.00
6345;BME280;3205;42.666;23.264;2022-12-18T10:21:28;95666.00;;;8.20;100.00
6345;BME280;3205;42.666;23.264;2022-12-18T10:24:05;95663.50;;;8.10;100.00
6345;BME280;3205;42.666;23.264;2022-12-18T10:26:34;95663.16;;;8.16;100.00
6345;BME280;3205;42.666;23.264;2022-12-18T10:29:01;95669.53;;;8.10;100.00
6345;BME280;3205;42.666;23.264;2022-12-18T10:31:27;95666.19;;;8.05;100.00
6345;BME280;3205;42.666;23.264;2022-12-18T10:33:54;95672.66;;;8.12;100.00
6345;BME280;3205;42.666;23.264;2022-12-18T10:36:20;95672.06;;;8.20;100.00
6345;BME280;3205;42.666;23.264;2022-12-18T10:38:46;95663.44;;;8.15;100.00
6345;BME280;3205;42.666;23.264;2022-12-18T10:41:25;95664.06;;;8.25;100.00
6345;BME280;3205;42.666;23.264;2022-12-18T10:44:11;95674.28;;;8.08;100.00
6345;BME280;3205;42.666;23.264;2022-12-18T10:46:38;95670.75;;;8.00;100.00
6345;BME280;3205;42.666;23.264;2022-12-18T10:49:04;95666.25;;;8.00;100.00
6345;BME280;3205;42.666;23.264;2022-12-18T10:51:33;95671.72;;;8.04;100.00
6345;BME280;3205;42.666;23.264;2022-12-18T10:54:01;95675.50;;;7.98;100.00
6345;BME280;3205;42.666;23.264;2022-12-18T10:56:30;95668.72;;;8.15;100.00
6345;BME280;3205;42.666;23.264;2022-12-18T10:58:59;95663.16;;;8.16;100.00
6345;BME280;3205;42.666;23.264;2022-12-18T11:01:27;95659.28;;;8.09;100.00
6345;BME280;3205;42.666;23.264;2022-12-18T11:04:08;95662.41;;;8.11;100.00
6345;BME280;3205;42.666;23.264;2022-12-18T11:06:52;95663.28;;;8.07;100.00
6345;BME280;3205;42.666;23.264;2022-12-18T11:09:21;95662.78;;;8.05;100.00
6345;BME280;3205;42.666;23.264;2022-12-18T11:11:49;95671.41;;;8.10;100.00
6345;BME280;3205;42.666;23.264;2022-12-18T11:14:21;95667.41;;;8.12;100.00
6345;BME280;3205;42.666;23.264;2022-12-18T11:16:49;95683.91;;;8.18;100.00
6345;BME280;3205;42.666;23.264;2022-12-18T11:19:30;95676.06;;;8.13;100.00
6345;BME280;3205;42.666;23.264;2022-12-18T11:21:58;95690.69;;;8.06;100.00
6345;BME280;3205;42.666;23.264;2022-12-18T11:24:29;95684.97;;;7.99;100.00
6345;BME280;3205;42.666;23.264;2022-12-18T11:26:57;95688.88;;;7.83;100.00
6345;BME280;3205;42.666;23.264;2022-12-18T11:29:30;95681.69;;;7.88;100.00
6345;BME280;3205;42.666;23.264;2022-12-18T11:32:20;95681.41;;;7.90;100.00
6345;BME280;3205;42.666;23.264;2022-12-18T11:34:52;95681.91;;;7.73;100.00
6345;BME280;3205;42.666;23.264;2022-12-18T11:37:23;95677.25;;;7.65;100.00
6345;BME280;3205;42.666;23.264;2022-12-18T11:39:55;95684.72;;;7.58;100.00
6345;BME280;3205;42.666;23.264;2022-12-18T11:42:27;95677.97;;;7.71;100.00
6345;BME280;3205;42.666;23.264;2022-12-18T11:45:00;95691.25;;;7.61;100.00
6345;BME280;3205;42.666;23.264;2022-12-18T11:47:33;95694.69;;;7.38;100.00
6345;BME280;3205;42.666;23.264;2022-12-18T11:50:05;95681.50;;;7.20;100.00
6345;BME280;3205;42.666;23.264;2022-12-18T11:52:38;95686.06;;;7.09;100.00
6345;BME280;3205;42.666;23.264;2022-12-18T11:55:11;95686.06;;;7.09;100.00
6345;BME280;3205;42.666;23.264;2022-12-18T11:57:44;95676.16;;;7.25;100.00
6345;BME280;3205;42.666;23.264;2022-12-18T12:00:16;95676.84;;;7.35;100.00
6345;BME280;3205;42.666;23.264;2022-12-18T12:03:09;95667.81;;;7.41;100.00
6345;BME280;3205;42.666;23.264;2022-12-18T12:05:48;95675.22;;;7.39;100.00
6345;BME280;3205;42.666;23.264;2022-12-18T12:08:28;95674.34;;;7.25;100.00
6345;BME280;3205;42.666;23.264;2022-12-18T12:11:03;95672.25;;;7.22;100.00
6345;BME280;3205;42.666;23.264;2022-12-18T12:13:40;95678.47;;;7.08;100.00
6345;BME280;3205;42.666;23.264;2022-12-18T12:16:17;95676.97;;;7.25;100.00
6345;BME280;3205;42.666;23.264;2022-12-18T12:18:56;95672.63;;;7.34;100.00
6345;BME280;3205;42.666;23.264;2022-12-18T12:21:32;95678.41;;;7.36;100.00
6345;BME280;3205;42.666;23.264;2022-12-18T12:24:09;95666.09;;;7.32;100.00
6345;BME280;3205;42.666;23.264;2022-12-18T12:26:45;95667.94;;;7.31;100.00
6345;BME280;3205;42.666;23.264;2022-12-18T12:29:29;95668.66;;;7.36;100.00
6345;BME280;3205;42.666;23.264;2022-12-18T12:32:07;95675.28;;;7.34;100.00
6345;BME280;3205;42.666;23.264;2022-12-18T12:34:48;95682.16;;;7.30;100.00
6345;BME280;3205;42.666;23.264;2022-12-18T12:37:25;95670.75;;;7.16;100.00
6345;BME280;3205;42.666;23.264;2022-12-18T12:39:56;95674.44;;;7.15;100.00
6345;BME280;3205;42.666;23.264;2022-12-18T12:42:29;95684.63;;;7.22;100.00
6345;BME280;3205;42.666;23.264;2022-12-18T12:45:19;95671.97;;;7.24;100.00
6345;BME280;3205;42.666;23.264;2022-12-18T12:47:49;95674.97;;;7.12;100.00
6345;BME280;3205;42.666;23.264;2022-12-18T12:50:19;95681.44;;;7.25;100.00
6345;BME280;3205;42.666;23.264;2022-12-18T12:52:47;95690.06;;;7.30;100.00
6345;BME280;3205;42.666;23.264;2022-12-18T12:55:17;95685.75;;;7.39;100.00
6345;BME280;3205;42.666;23.264;2022-12-18T12:57:50;95684.06;;;7.25;100.00
6345;BME280;3205;42.666;23.264;2022-12-18T13:00:21;95682.31;;;7.38;100.00
6345;BME280;3205;42.666;23.264;2022-12-18T13:02:54;95681.19;;;7.44;100.00
6345;BME280;3205;42.666;23.264;2022-12-18T13:05:29;95692.56;;;7.40;100.00
6345;BME280;3205;42.666;23.264;2022-12-18T13:08:00;95683.06;;;7.44;100.00
6345;BME280;3205;42.666;23.264;2022-12-18T13:10:33;95688.09;;;7.40;100.00
6345;BME280;3205;42.666;23.264;2022-12-18T13:13:02;95697.34;;;7.38;100.00
6345;BME280;3205;42.666;23.264;2022-12-18T13:15:34;95688.72;;;7.33;100.00
6345;BME280;3205;42.666;23.264;2022-12-18T13:18:19;95700.34;;;7.27;100.00
6345;BME280;3205;42.666;23.264;2022-12-18T13:20:48;95708.38;;;7.12;100.00